sensor_id;sensor_type;location;lat;lon;timestamp;P1;durP1;ratioP1;P2;durP2;ratioP2
13493;SDS011;6819;50.886;4.332;2023-08-24T00:01:31;10.15;;;4.70;;
13493;SDS011;6819;50.886;4.332;2023-08-24T00:03:57;8.27;;;4.53;;
13493;SDS011;6819;50.886;4.332;2023-08-24T00:06:23;10.63;;;4.93;;
13493;SDS011;6819;50.886;4.332;2023-08-24T00:08:49;10.02;;;4.30;;
13493;SDS011;6819;50.886;4.332;2023-08-24T00:11:15;9.48;;;4.43;;
13493;SDS011;6819;50.886;4.332;2023-08-24T00:13:42;12.02;;;4.30;;
13493;SDS011;6819;50.886;4.332;2023-08-24T00:16:16;9.32;;;4.63;;
13493;SDS011;6819;50.886;4.332;2023-08-24T00:18:42;10.82;;;4.25;;
13493;SDS011;6819;50.886;4.332;2023-08-24T00:21:09;8.82;;;4.53;;
13493;SDS011;6819;50.886;4.332;2023-08-24T00:23:35;10.45;;;5.20;;
13493;SDS011;6819;50.886;4.332;2023-08-24T00:26:02;8.45;;;4.68;;
13493;SDS011;6819;50.886;4.332;2023-08-24T00:28:28;10.18;;;4.65;;
13493;SDS011;6819;50.886;4.332;2023-08-24T00:30:54;13.75;;;4.95;;
13493;SDS011;6819;50.886;4.332;2023-08-24T00:33:20;10.35;;;4.53;;
13493;SDS011;6819;50.886;4.332;2023-08-24T00:35:46;12.38;;;5.20;;
13493;SDS011;6819;50.886;4.332;2023-08-24T00:38:12;6.75;;;4.35;;
13493;SDS011;6819;50.886;4.332;2023-08-24T00:40:40;7.38;;;4.57;;
13493;SDS011;6819;50.886;4.332;2023-08-24T00:43:07;8.02;;;4.38;;
13493;SDS011;6819;50.886;4.332;2023-08-24T00:45:33;10.57;;;4.25;;
13493;SDS011;6819;50.886;4.332;2023-08-24T00:47:59;10.00;;;4.32;;
13493;SDS011;6819;50.886;4.332;2023-08-24T00:50:25;10.93;;;4.82;;
13493;SDS011;6819;50.886;4.332;2023-08-24T00:52:51;7.80;;;4.75;;
13493;SDS011;6819;50.886;4.332;2023-08-24T00:55:18;7.97;;;4.50;;
13493;SDS011;6819;50.886;4.332;2023-08-24T00:57:44;9.15;;;4.78;;
13493;SDS011;6819;50.886;4.332;2023-08-24T01:00:11;8.63;;;4.70;;
13493;SDS011;6819;50.886;4.332;2023-08-24T01:02:40;7.28;;;3.92;;
13493;SDS011;6819;50.886;4.332;2023-08-24T01:05:06;6.82;;;4.82;;
13493;SDS011;6819;50.886;4.332;2023-08-24T01:07:33;8.02;;;4.35;;
13493;SDS011;6819;50.886;4.332;2023-08-24T01:10:02;7.30;;;4.47;;
13493;SDS011;6819;50.886;4.332;2023-08-24T01:15:21;8.00;;;4.60;;
13493;SDS011;6819;50.886;4.332;2023-08-24T01:17:49;6.15;;;4.15;;
13493;SDS011;6819;50.886;4.332;2023-08-24T01:20:15;7.88;;;5.00;;
13493;SDS011;6819;50.886;4.332;2023-08-24T01:22:53;11.13;;;4.80;;
13493;SDS011;6819;50.886;4.332;2023-08-24T01:27:54;8.40;;;4.70;;
13493;SDS011;6819;50.886;4.332;2023-08-24T01:30:21;15.35;;;5.05;;
13493;SDS011;6819;50.886;4.332;2023-08-24T01:32:47;7.50;;;4.35;;
13493;SDS011;6819;50.886;4.332;2023-08-24T01:35:13;7.25;;;4.38;;
13493;SDS011;6819;50.886;4.332;2023-08-24T01:37:39;7.90;;;4.68;;
13493;SDS011;6819;50.886;4.332;2023-08-24T01:42:39;7.50;;;4.28;;
13493;SDS011;6819;50.886;4.332;2023-08-24T01:45:07;9.60;;;4.80;;
13493;SDS011;6819;50.886;4.332;2023-08-24T01:47:35;6.32;;;4.30;;
13493;SDS011;6819;50.886;4.332;2023-08-24T01:50:02;6.82;;;5.00;;
13493;SDS011;6819;50.886;4.332;2023-08-24T01:52:28;12.85;;;4.72;;
13493;SDS011;6819;50.886;4.332;2023-08-24T01:54:55;8.48;;;4.72;;
13493;SDS011;6819;50.886;4.332;2023-08-24T01:57:21;7.05;;;4.40;;
13493;SDS011;6819;50.886;4.332;2023-08-24T01:59:47;7.30;;;4.57;;
13493;SDS011;6819;50.886;4.332;2023-08-24T02:02:13;10.50;;;5.13;;
13493;SDS011;6819;50.886;4.332;2023-08-24T02:04:39;7.95;;;5.05;;
13493;SDS011;6819;50.886;4.332;2023-08-24T02:07:05;8.13;;;4.80;;
13493;SDS011;6819;50.886;4.332;2023-08-24T02:09:31;15.50;;;6.03;;
13493;SDS011;6819;50.886;4.332;2023-08-24T02:11:57;11.40;;;5.22;;
13493;SDS011;6819;50.886;4.332;2023-08-24T02:14:23;12.25;;;5.07;;
13493;SDS011;6819;50.886;4.332;2023-08-24T02:16:49;13.70;;;5.22;;
13493;SDS011;6819;50.886;4.332;2023-08-24T02:19:15;10.88;;;5.97;;
13493;SDS011;6819;50.886;4.332;2023-08-24T02:21:41;9.00;;;5.45;;
13493;SDS011;6819;50.886;4.332;2023-08-24T02:24:07;12.90;;;5.88;;
13493;SDS011;6819;50.886;4.332;2023-08-24T02:26:33;10.50;;;5.15;;
13493;SDS011;6819;50.886;4.332;2023-08-24T02:28:59;8.82;;;5.75;;
13493;SDS011;6819;50.886;4.332;2023-08-24T02:31:25;8.57;;;5.45;;
13493;SDS011;6819;50.886;4.332;2023-08-24T02:33:51;10.35;;;5.53;;
13493;SDS011;6819;50.886;4.332;2023-08-24T02:36:17;9.30;;;5.05;;
13493;SDS011;6819;50.886;4.332;2023-08-24T02:38:43;9.77;;;5.45;;
13493;SDS011;6819;50.886;4.332;2023-08-24T02:41:09;7.85;;;5.38;;
13493;SDS011;6819;50.886;4.332;2023-08-24T02:43:36;11.43;;;5.15;;
13493;SDS011;6819;50.886;4.332;2023-08-24T02:46:07;8.45;;;5.50;;
13493;SDS011;6819;50.886;4.332;2023-08-24T02:48:33;7.78;;;5.20;;
13493;SDS011;6819;50.886;4.332;2023-08-24T02:51:00;9.55;;;5.50;;
13493;SDS011;6819;50.886;4.332;2023-08-24T02:53:28;7.13;;;5.10;;
13493;SDS011;6819;50.886;4.332;2023-08-24T02:55:57;7.95;;;5.20;;
13493;SDS011;6819;50.886;4.332;2023-08-24T02:58:23;13.20;;;5.78;;
13493;SDS011;6819;50.886;4.332;2023-08-24T03:00:49;14.68;;;5.30;;
13493;SDS011;6819;50.886;4.332;2023-08-24T03:03:15;11.20;;;5.70;;
13493;SDS011;6819;50.886;4.332;2023-08-24T03:05:52;10.60;;;5.40;;
13493;SDS011;6819;50.886;4.332;2023-08-24T03:08:18;11.07;;;5.57;;
13493;SDS011;6819;50.886;4.332;2023-08-24T03:10:44;8.98;;;5.35;;
13493;SDS011;6819;50.886;4.332;2023-08-24T03:13:13;11.57;;;5.40;;
13493;SDS011;6819;50.886;4.332;2023-08-24T03:15:39;11.57;;;5.55;;
13493;SDS011;6819;50.886;4.332;2023-08-24T03:18:05;7.43;;;5.18;;
13493;SDS011;6819;50.886;4.332;2023-08-24T03:20:31;11.32;;;5.40;;
13493;SDS011;6819;50.886;4.332;2023-08-24T03:22:57;10.68;;;5.63;;
13493;SDS011;6819;50.886;4.332;2023-08-24T03:25:23;8.93;;;5.22;;
13493;SDS011;6819;50.886;4.332;2023-08-24T03:27:49;12.80;;;6.32;;
13493;SDS011;6819;50.886;4.332;2023-08-24T03:30:15;10.13;;;5.40;;
13493;SDS011;6819;50.886;4.332;2023-08-24T03:32:41;10.75;;;5.40;;
13493;SDS011;6819;50.886;4.332;2023-08-24T03:35:07;9.70;;;5.43;;
13493;SDS011;6819;50.886;4.332;2023-08-24T03:37:34;10.02;;;5.13;;
13493;SDS011;6819;50.886;4.332;2023-08-24T03:40:00;14.65;;;5.53;;
13493;SDS011;6819;50.886;4.332;2023-08-24T03:42:26;9.15;;;4.97;;
13493;SDS011;6819;50.886;4.332;2023-08-24T03:44:52;9.18;;;4.90;;
13493;SDS011;6819;50.886;4.332;2023-08-24T03:47:18;11.45;;;5.18;;
13493;SDS011;6819;50.886;4.332;2023-08-24T03:49:44;7.90;;;5.20;;
13493;SDS011;6819;50.886;4.332;2023-08-24T03:52:10;15.90;;;5.80;;
13493;SDS011;6819;50.886;4.332;2023-08-24T03:54:36;9.38;;;5.43;;
13493;SDS011;6819;50.886;4.332;2023-08-24T03:57:02;12.07;;;5.07;;
13493;SDS011;6819;50.886;4.332;2023-08-24T03:59:28;8.57;;;5.20;;
13493;SDS011;6819;50.886;4.332;2023-08-24T04:01:54;9.80;;;5.22;;
13493;SDS011;6819;50.886;4.332;2023-08-24T04:04:20;7.75;;;5.10;;
13493;SDS011;6819;50.886;4.332;2023-08-24T04:06:46;9.07;;;5.47;;
13493;SDS011;6819;50.886;4.332;2023-08-24T04:09:14;10.73;;;5.85;;
13493;SDS011;6819;50.886;4.332;2023-08-24T04:11:40;7.10;;;5.28;;
13493;SDS011;6819;50.886;4.332;2023-08-24T04:14:06;13.00;;;5.40;;
13493;SDS011;6819;50.886;4.332;2023-08-24T04:16:32;10.70;;;5.75;;
13493;SDS011;6819;50.886;4.332;2023-08-24T04:18:58;11.43;;;5.82;;
13493;SDS011;6819;50.886;4.332;2023-08-24T04:21:24;10.40;;;5.22;;
13493;SDS011;6819;50.886;4.332;2023-08-24T04:23:50;10.05;;;6.15;;
13493;SDS011;6819;50.886;4.332;2023-08-24T04:26:16;10.13;;;5.30;;
13493;SDS011;6819;50.886;4.332;2023-08-24T04:28:42;11.68;;;6.03;;
13493;SDS011;6819;50.886;4.332;2023-08-24T04:31:08;12.70;;;5.78;;
13493;SDS011;6819;50.886;4.332;2023-08-24T04:33:35;11.40;;;6.10;;
13493;SDS011;6819;50.886;4.332;2023-08-24T04:36:01;11.05;;;5.50;;
13493;SDS011;6819;50.886;4.332;2023-08-24T04:38:28;11.35;;;5.53;;
13493;SDS011;6819;50.886;4.332;2023-08-24T04:40:55;9.60;;;5.47;;
13493;SDS011;6819;50.886;4.332;2023-08-24T04:43:21;10.60;;;5.38;;
13493;SDS011;6819;50.886;4.332;2023-08-24T04:45:51;8.18;;;5.55;;
13493;SDS011;6819;50.886;4.332;2023-08-24T04:48:18;7.80;;;5.45;;
13493;SDS011;6819;50.886;4.332;2023-08-24T04:50:44;11.32;;;5.13;;
13493;SDS011;6819;50.886;4.332;2023-08-24T04:53:12;11.85;;;6.20;;
13493;SDS011;6819;50.886;4.332;2023-08-24T04:55:39;9.60;;;5.63;;
13493;SDS011;6819;50.886;4.332;2023-08-24T04:58:05;8.32;;;5.03;;
13493;SDS011;6819;50.886;4.332;2023-08-24T05:00:31;9.57;;;5.38;;
13493;SDS011;6819;50.886;4.332;2023-08-24T05:02:58;13.05;;;5.60;;
13493;SDS011;6819;50.886;4.332;2023-08-24T05:05:24;8.77;;;5.38;;
13493;SDS011;6819;50.886;4.332;2023-08-24T05:07:50;8.48;;;5.85;;
13493;SDS011;6819;50.886;4.332;2023-08-24T05:10:16;7.68;;;4.93;;
13493;SDS011;6819;50.886;4.332;2023-08-24T05:12:42;11.30;;;5.30;;
13493;SDS011;6819;50.886;4.332;2023-08-24T05:15:08;13.15;;;5.32;;
13493;SDS011;6819;50.886;4.332;2023-08-24T05:17:35;10.60;;;5.80;;
13493;SDS011;6819;50.886;4.332;2023-08-24T05:20:01;17.10;;;6.10;;
13493;SDS011;6819;50.886;4.332;2023-08-24T05:22:27;10.02;;;5.43;;
13493;SDS011;6819;50.886;4.332;2023-08-24T05:24:53;10.55;;;5.65;;
13493;SDS011;6819;50.886;4.332;2023-08-24T05:27:19;9.80;;;6.15;;
13493;SDS011;6819;50.886;4.332;2023-08-24T05:29:45;9.75;;;4.95;;
13493;SDS011;6819;50.886;4.332;2023-08-24T05:32:11;8.45;;;5.07;;
13493;SDS011;6819;50.886;4.332;2023-08-24T05:34:37;10.20;;;4.70;;
13493;SDS011;6819;50.886;4.332;2023-08-24T05:37:03;8.90;;;5.53;;
13493;SDS011;6819;50.886;4.332;2023-08-24T05:39:29;8.35;;;5.38;;
13493;SDS011;6819;50.886;4.332;2023-08-24T05:41:55;16.50;;;6.85;;
13493;SDS011;6819;50.886;4.332;2023-08-24T05:44:21;10.63;;;6.20;;
13493;SDS011;6819;50.886;4.332;2023-08-24T05:46:47;10.43;;;5.63;;
13493;SDS011;6819;50.886;4.332;2023-08-24T05:49:13;10.02;;;5.47;;
13493;SDS011;6819;50.886;4.332;2023-08-24T05:51:39;10.95;;;6.03;;
13493;SDS011;6819;50.886;4.332;2023-08-24T05:54:05;11.45;;;5.18;;
13493;SDS011;6819;50.886;4.332;2023-08-24T05:56:32;20.65;;;6.18;;
13493;SDS011;6819;50.886;4.332;2023-08-24T05:58:58;16.35;;;4.95;;
13493;SDS011;6819;50.886;4.332;2023-08-24T06:01:24;17.38;;;5.90;;
13493;SDS011;6819;50.886;4.332;2023-08-24T06:03:50;9.35;;;4.80;;
13493;SDS011;6819;50.886;4.332;2023-08-24T06:06:16;11.15;;;5.10;;
13493;SDS011;6819;50.886;4.332;2023-08-24T06:08:43;9.98;;;5.18;;
13493;SDS011;6819;50.886;4.332;2023-08-24T06:11:09;13.23;;;4.80;;
13493;SDS011;6819;50.886;4.332;2023-08-24T06:13:35;12.90;;;4.97;;
13493;SDS011;6819;50.886;4.332;2023-08-24T06:16:01;12.02;;;4.68;;
13493;SDS011;6819;50.886;4.332;2023-08-24T06:18:27;13.13;;;5.18;;
13493;SDS011;6819;50.886;4.332;2023-08-24T06:20:53;9.32;;;4.97;;
13493;SDS011;6819;50.886;4.332;2023-08-24T06:23:20;7.85;;;4.97;;
13493;SDS011;6819;50.886;4.332;2023-08-24T06:25:46;13.18;;;5.13;;
13493;SDS011;6819;50.886;4.332;2023-08-24T06:28:13;9.02;;;4.72;;
13493;SDS011;6819;50.886;4.332;2023-08-24T06:30:39;9.52;;;4.40;;
13493;SDS011;6819;50.886;4.332;2023-08-24T06:33:06;9.88;;;4.88;;
13493;SDS011;6819;50.886;4.332;2023-08-24T06:35:32;10.30;;;4.78;;
13493;SDS011;6819;50.886;4.332;2023-08-24T06:37:59;15.63;;;5.30;;
13493;SDS011;6819;50.886;4.332;2023-08-24T06:40:25;9.35;;;4.63;;
13493;SDS011;6819;50.886;4.332;2023-08-24T06:42:51;10.63;;;4.68;;
13493;SDS011;6819;50.886;4.332;2023-08-24T06:45:17;9.93;;;4.55;;
13493;SDS011;6819;50.886;4.332;2023-08-24T06:47:44;11.52;;;4.80;;
13493;SDS011;6819;50.886;4.332;2023-08-24T06:50:10;9.43;;;4.97;;
13493;SDS011;6819;50.886;4.332;2023-08-24T06:52:36;14.52;;;4.63;;
13493;SDS011;6819;50.886;4.332;2023-08-24T06:55:02;8.60;;;5.45;;
13493;SDS011;6819;50.886;4.332;2023-08-24T06:57:29;16.83;;;5.30;;
13493;SDS011;6819;50.886;4.332;2023-08-24T06:59:55;9.05;;;5.10;;
13493;SDS011;6819;50.886;4.332;2023-08-24T07:02:21;9.48;;;6.00;;
13493;SDS011;6819;50.886;4.332;2023-08-24T07:04:47;11.88;;;6.60;;
13493;SDS011;6819;50.886;4.332;2023-08-24T07:07:13;12.70;;;6.72;;
13493;SDS011;6819;50.886;4.332;2023-08-24T07:09:39;12.52;;;6.90;;
13493;SDS011;6819;50.886;4.332;2023-08-24T07:12:05;10.73;;;5.53;;
13493;SDS011;6819;50.886;4.332;2023-08-24T07:14:38;10.82;;;5.43;;
13493;SDS011;6819;50.886;4.332;2023-08-24T07:17:05;8.27;;;5.95;;
13493;SDS011;6819;50.886;4.332;2023-08-24T07:19:31;11.50;;;6.15;;
13493;SDS011;6819;50.886;4.332;2023-08-24T07:21:57;14.98;;;7.85;;
13493;SDS011;6819;50.886;4.332;2023-08-24T07:24:23;8.63;;;5.80;;
13493;SDS011;6819;50.886;4.332;2023-08-24T07:26:54;12.98;;;5.63;;
13493;SDS011;6819;50.886;4.332;2023-08-24T07:29:20;13.73;;;4.88;;
13493;SDS011;6819;50.886;4.332;2023-08-24T07:31:47;10.52;;;5.90;;
13493;SDS011;6819;50.886;4.332;2023-08-24T07:34:14;13.00;;;5.05;;
13493;SDS011;6819;50.886;4.332;2023-08-24T07:36:40;9.35;;;4.35;;
13493;SDS011;6819;50.886;4.332;2023-08-24T07:39:07;10.40;;;5.65;;
13493;SDS011;6819;50.886;4.332;2023-08-24T07:41:33;11.15;;;5.50;;
13493;SDS011;6819;50.886;4.332;2023-08-24T07:43:59;12.43;;;5.32;;
13493;SDS011;6819;50.886;4.332;2023-08-24T07:46:25;12.23;;;6.38;;
13493;SDS011;6819;50.886;4.332;2023-08-24T07:48:51;7.80;;;5.15;;
13493;SDS011;6819;50.886;4.332;2023-08-24T07:51:17;13.95;;;5.57;;
13493;SDS011;6819;50.886;4.332;2023-08-24T07:53:43;11.43;;;4.90;;
13493;SDS011;6819;50.886;4.332;2023-08-24T07:56:09;11.30;;;5.63;;
13493;SDS011;6819;50.886;4.332;2023-08-24T07:58:35;12.32;;;5.30;;
13493;SDS011;6819;50.886;4.332;2023-08-24T08:01:02;16.55;;;5.60;;
13493;SDS011;6819;50.886;4.332;2023-08-24T08:03:28;11.10;;;6.03;;
13493;SDS011;6819;50.886;4.332;2023-08-24T08:05:55;14.48;;;7.53;;
13493;SDS011;6819;50.886;4.332;2023-08-24T08:08:23;10.35;;;6.18;;
13493;SDS011;6819;50.886;4.332;2023-08-24T08:10:56;11.85;;;5.72;;
13493;SDS011;6819;50.886;4.332;2023-08-24T08:13:23;11.90;;;5.38;;
13493;SDS011;6819;50.886;4.332;2023-08-24T08:15:49;10.98;;;6.00;;
13493;SDS011;6819;50.886;4.332;2023-08-24T08:18:15;14.38;;;6.90;;
13493;SDS011;6819;50.886;4.332;2023-08-24T08:20:41;15.45;;;7.75;;
13493;SDS011;6819;50.886;4.332;2023-08-24T08:23:07;15.23;;;7.43;;
13493;SDS011;6819;50.886;4.332;2023-08-24T08:25:33;12.60;;;6.07;;
13493;SDS011;6819;50.886;4.332;2023-08-24T08:28:00;14.07;;;6.05;;
13493;SDS011;6819;50.886;4.332;2023-08-24T08:30:26;14.68;;;6.60;;
13493;SDS011;6819;50.886;4.332;2023-08-24T08:32:52;19.48;;;6.30;;
13493;SDS011;6819;50.886;4.332;2023-08-24T08:35:21;8.80;;;5.25;;
13493;SDS011;6819;50.886;4.332;2023-08-24T08:37:47;11.25;;;5.82;;
13493;SDS011;6819;50.886;4.332;2023-08-24T08:40:15;14.50;;;7.15;;
13493;SDS011;6819;50.886;4.332;2023-08-24T08:42:41;14.23;;;6.18;;
13493;SDS011;6819;50.886;4.332;2023-08-24T08:45:10;9.43;;;4.90;;
13493;SDS011;6819;50.886;4.332;2023-08-24T08:47:36;11.82;;;6.20;;
13493;SDS011;6819;50.886;4.332;2023-08-24T08:50:03;12.85;;;5.78;;
13493;SDS011;6819;50.886;4.332;2023-08-24T08:52:29;15.23;;;6.47;;
13493;SDS011;6819;50.886;4.332;2023-08-24T08:54:55;13.07;;;6.60;;
13493;SDS011;6819;50.886;4.332;2023-08-24T08:57:22;12.68;;;5.43;;
13493;SDS011;6819;50.886;4.332;2023-08-24T08:59:48;16.90;;;6.43;;
13493;SDS011;6819;50.886;4.332;2023-08-24T09:02:16;16.25;;;5.65;;
13493;SDS011;6819;50.886;4.332;2023-08-24T09:04:43;12.80;;;6.75;;
13493;SDS011;6819;50.886;4.332;2023-08-24T09:07:10;15.80;;;6.40;;
13493;SDS011;6819;50.886;4.332;2023-08-24T09:09:38;16.65;;;6.65;;
13493;SDS011;6819;50.886;4.332;2023-08-24T09:12:05;21.00;;;6.25;;
13493;SDS011;6819;50.886;4.332;2023-08-24T09:14:31;11.05;;;5.40;;
13493;SDS011;6819;50.886;4.332;2023-08-24T09:16:57;14.05;;;5.30;;
13493;SDS011;6819;50.886;4.332;2023-08-24T09:19:29;14.00;;;5.68;;
13493;SDS011;6819;50.886;4.332;2023-08-24T09:21:56;15.82;;;6.63;;
13493;SDS011;6819;50.886;4.332;2023-08-24T09:24:29;14.43;;;5.95;;
13493;SDS011;6819;50.886;4.332;2023-08-24T09:26:56;13.45;;;6.20;;
13493;SDS011;6819;50.886;4.332;2023-08-24T09:29:22;10.80;;;5.95;;
13493;SDS011;6819;50.886;4.332;2023-08-24T09:31:49;13.30;;;5.97;;
13493;SDS011;6819;50.886;4.332;2023-08-24T09:34:18;18.38;;;7.25;;
13493;SDS011;6819;50.886;4.332;2023-08-24T09:36:48;13.02;;;6.13;;
13493;SDS011;6819;50.886;4.332;2023-08-24T09:39:16;16.35;;;7.30;;
13493;SDS011;6819;50.886;4.332;2023-08-24T09:41:46;12.02;;;5.90;;
13493;SDS011;6819;50.886;4.332;2023-08-24T09:44:12;13.63;;;7.25;;
13493;SDS011;6819;50.886;4.332;2023-08-24T09:46:39;13.60;;;6.28;;
13493;SDS011;6819;50.886;4.332;2023-08-24T09:49:06;10.38;;;6.32;;
13493;SDS011;6819;50.886;4.332;2023-08-24T09:51:33;12.82;;;7.05;;
13493;SDS011;6819;50.886;4.332;2023-08-24T09:53:59;11.40;;;6.28;;
13493;SDS011;6819;50.886;4.332;2023-08-24T09:56:28;13.88;;;5.80;;
13493;SDS011;6819;50.886;4.332;2023-08-24T09:58:54;13.43;;;6.25;;
13493;SDS011;6819;50.886;4.332;2023-08-24T10:01:20;11.40;;;5.82;;
13493;SDS011;6819;50.886;4.332;2023-08-24T10:03:47;10.93;;;5.82;;
13493;SDS011;6819;50.886;4.332;2023-08-24T10:06:15;9.85;;;5.65;;
13493;SDS011;6819;50.886;4.332;2023-08-24T10:08:43;16.38;;;6.32;;
13493;SDS011;6819;50.886;4.332;2023-08-24T10:11:10;8.15;;;5.47;;
13493;SDS011;6819;50.886;4.332;2023-08-24T10:16:02;9.73;;;5.47;;
13493;SDS011;6819;50.886;4.332;2023-08-24T10:18:29;14.07;;;5.97;;
13493;SDS011;6819;50.886;4.332;2023-08-24T10:20:55;10.75;;;6.10;;
13493;SDS011;6819;50.886;4.332;2023-08-24T10:23:22;10.00;;;5.53;;
13493;SDS011;6819;50.886;4.332;2023-08-24T10:25:49;14.38;;;6.15;;
13493;SDS011;6819;50.886;4.332;2023-08-24T10:28:16;11.77;;;5.68;;
13493;SDS011;6819;50.886;4.332;2023-08-24T10:30:44;11.85;;;5.97;;
13493;SDS011;6819;50.886;4.332;2023-08-24T10:33:11;12.35;;;5.80;;
13493;SDS011;6819;50.886;4.332;2023-08-24T10:35:38;14.55;;;6.30;;
13493;SDS011;6819;50.886;4.332;2023-08-24T10:38:05;12.88;;;5.85;;
13493;SDS011;6819;50.886;4.332;2023-08-24T10:40:32;15.27;;;7.30;;
13493;SDS011;6819;50.886;4.332;2023-08-24T10:42:58;15.10;;;6.55;;
13493;SDS011;6819;50.886;4.332;2023-08-24T10:45:28;10.32;;;6.45;;
13493;SDS011;6819;50.886;4.332;2023-08-24T10:48:14;13.82;;;6.00;;
13493;SDS011;6819;50.886;4.332;2023-08-24T10:50:41;10.55;;;6.20;;
13493;SDS011;6819;50.886;4.332;2023-08-24T10:53:07;9.65;;;7.20;;
13493;SDS011;6819;50.886;4.332;2023-08-24T10:55:35;11.77;;;6.47;;
13493;SDS011;6819;50.886;4.332;2023-08-24T10:58:03;8.18;;;5.93;;
13493;SDS011;6819;50.886;4.332;2023-08-24T11:00:29;8.00;;;6.00;;
13493;SDS011;6819;50.886;4.332;2023-08-24T11:02:56;9.02;;;5.80;;
13493;SDS011;6819;50.886;4.332;2023-08-24T11:05:23;14.60;;;6.07;;
13493;SDS011;6819;50.886;4.332;2023-08-24T11:07:56;8.73;;;5.15;;
13493;SDS011;6819;50.886;4.332;2023-08-24T11:10:25;12.63;;;5.18;;
13493;SDS011;6819;50.886;4.332;2023-08-24T11:13:04;9.00;;;5.50;;
13493;SDS011;6819;50.886;4.332;2023-08-24T11:15:31;13.52;;;4.90;;
13493;SDS011;6819;50.886;4.332;2023-08-24T11:20:43;5.60;;;3.90;;
13493;SDS011;6819;50.886;4.332;2023-08-24T11:23:09;10.05;;;4.40;;
13493;SDS011;6819;50.886;4.332;2023-08-24T11:25:36;8.63;;;4.38;;
13493;SDS011;6819;50.886;4.332;2023-08-24T11:28:03;9.77;;;4.55;;
13493;SDS011;6819;50.886;4.332;2023-08-24T11:30:33;11.30;;;4.72;;
13493;SDS011;6819;50.886;4.332;2023-08-24T11:32:59;10.90;;;4.35;;
13493;SDS011;6819;50.886;4.332;2023-08-24T11:35:25;10.65;;;4.05;;
13493;SDS011;6819;50.886;4.332;2023-08-24T11:37:52;8.65;;;4.05;;
13493;SDS011;6819;50.886;4.332;2023-08-24T11:40:18;8.43;;;4.30;;
13493;SDS011;6819;50.886;4.332;2023-08-24T11:42:54;12.80;;;4.97;;
13493;SDS011;6819;50.886;4.332;2023-08-24T11:45:20;11.73;;;4.63;;
13493;SDS011;6819;50.886;4.332;2023-08-24T11:47:47;9.60;;;4.78;;
13493;SDS011;6819;50.886;4.332;2023-08-24T11:50:13;8.85;;;4.50;;
13493;SDS011;6819;50.886;4.332;2023-08-24T11:52:39;11.43;;;4.55;;
13493;SDS011;6819;50.886;4.332;2023-08-24T11:55:06;9.00;;;4.88;;
13493;SDS011;6819;50.886;4.332;2023-08-24T11:57:33;12.20;;;5.22;;
13493;SDS011;6819;50.886;4.332;2023-08-24T11:59:59;12.50;;;5.05;;
13493;SDS011;6819;50.886;4.332;2023-08-24T12:02:26;9.65;;;5.28;;
13493;SDS011;6819;50.886;4.332;2023-08-24T12:04:53;7.88;;;4.70;;
13493;SDS011;6819;50.886;4.332;2023-08-24T12:07:20;9.18;;;5.20;;
13493;SDS011;6819;50.886;4.332;2023-08-24T12:09:46;7.03;;;5.05;;
13493;SDS011;6819;50.886;4.332;2023-08-24T12:12:15;9.48;;;5.57;;
13493;SDS011;6819;50.886;4.332;2023-08-24T12:14:42;12.07;;;5.75;;
13493;SDS011;6819;50.886;4.332;2023-08-24T12:17:09;9.77;;;5.43;;
13493;SDS011;6819;50.886;4.332;2023-08-24T12:19:35;13.68;;;5.72;;
13493;SDS011;6819;50.886;4.332;2023-08-24T12:22:01;8.90;;;5.43;;
13493;SDS011;6819;50.886;4.332;2023-08-24T12:24:27;15.35;;;6.32;;
13493;SDS011;6819;50.886;4.332;2023-08-24T12:26:56;10.05;;;5.03;;
13493;SDS011;6819;50.886;4.332;2023-08-24T12:29:23;7.90;;;5.20;;
13493;SDS011;6819;50.886;4.332;2023-08-24T12:31:50;7.57;;;5.15;;
13493;SDS011;6819;50.886;4.332;2023-08-24T12:34:16;15.63;;;5.88;;
13493;SDS011;6819;50.886;4.332;2023-08-24T12:36:42;8.85;;;5.00;;
13493;SDS011;6819;50.886;4.332;2023-08-24T12:39:10;8.30;;;4.20;;
13493;SDS011;6819;50.886;4.332;2023-08-24T12:41:40;7.10;;;4.47;;
13493;SDS011;6819;50.886;4.332;2023-08-24T12:44:06;8.27;;;4.47;;
13493;SDS011;6819;50.886;4.332;2023-08-24T12:46:36;12.18;;;4.70;;
13493;SDS011;6819;50.886;4.332;2023-08-24T12:49:02;8.35;;;5.13;;
13493;SDS011;6819;50.886;4.332;2023-08-24T12:51:28;6.82;;;4.45;;
13493;SDS011;6819;50.886;4.332;2023-08-24T12:53:55;6.32;;;4.43;;
13493;SDS011;6819;50.886;4.332;2023-08-24T12:56:20;12.40;;;4.47;;
13493;SDS011;6819;50.886;4.332;2023-08-24T12:58:47;7.90;;;3.80;;
13493;SDS011;6819;50.886;4.332;2023-08-24T13:01:13;6.63;;;3.90;;
13493;SDS011;6819;50.886;4.332;2023-08-24T13:03:39;8.40;;;4.03;;
13493;SDS011;6819;50.886;4.332;2023-08-24T13:06:05;5.93;;;3.33;;
13493;SDS011;6819;50.886;4.332;2023-08-24T13:08:31;12.65;;;3.95;;
13493;SDS011;6819;50.886;4.332;2023-08-24T13:10:57;8.88;;;3.72;;
13493;SDS011;6819;50.886;4.332;2023-08-24T13:13:24;9.57;;;3.10;;
13493;SDS011;6819;50.886;4.332;2023-08-24T13:15:50;4.32;;;3.10;;
13493;SDS011;6819;50.886;4.332;2023-08-24T13:18:17;4.80;;;2.58;;
13493;SDS011;6819;50.886;4.332;2023-08-24T13:20:43;7.65;;;3.60;;
13493;SDS011;6819;50.886;4.332;2023-08-24T13:23:09;10.93;;;3.42;;
13493;SDS011;6819;50.886;4.332;2023-08-24T13:25:35;4.88;;;2.95;;
13493;SDS011;6819;50.886;4.332;2023-08-24T13:28:01;7.05;;;3.30;;
13493;SDS011;6819;50.886;4.332;2023-08-24T13:30:27;5.18;;;2.80;;
13493;SDS011;6819;50.886;4.332;2023-08-24T13:32:53;9.10;;;3.00;;
13493;SDS011;6819;50.886;4.332;2023-08-24T13:35:19;5.80;;;2.63;;
13493;SDS011;6819;50.886;4.332;2023-08-24T13:37:46;6.20;;;2.70;;
13493;SDS011;6819;50.886;4.332;2023-08-24T13:40:12;6.18;;;2.95;;
13493;SDS011;6819;50.886;4.332;2023-08-24T13:42:38;7.78;;;3.05;;
13493;SDS011;6819;50.886;4.332;2023-08-24T13:45:05;5.10;;;2.75;;
13493;SDS011;6819;50.886;4.332;2023-08-24T13:47:31;10.40;;;3.28;;
13493;SDS011;6819;50.886;4.332;2023-08-24T13:49:57;7.65;;;3.13;;
13493;SDS011;6819;50.886;4.332;2023-08-24T13:52:23;7.72;;;3.50;;
13493;SDS011;6819;50.886;4.332;2023-08-24T13:54:49;4.65;;;2.88;;
13493;SDS011;6819;50.886;4.332;2023-08-24T13:57:15;8.43;;;2.75;;
13493;SDS011;6819;50.886;4.332;2023-08-24T13:59:41;12.98;;;3.22;;
13493;SDS011;6819;50.886;4.332;2023-08-24T14:02:07;10.32;;;2.95;;
13493;SDS011;6819;50.886;4.332;2023-08-24T14:04:33;5.70;;;2.85;;
13493;SDS011;6819;50.886;4.332;2023-08-24T14:06:59;6.03;;;2.33;;
13493;SDS011;6819;50.886;4.332;2023-08-24T14:09:25;8.07;;;2.33;;
13493;SDS011;6819;50.886;4.332;2023-08-24T14:11:51;5.30;;;2.70;;
13493;SDS011;6819;50.886;4.332;2023-08-24T14:14:17;7.93;;;3.00;;
13493;SDS011;6819;50.886;4.332;2023-08-24T14:16:43;4.82;;;2.58;;
13493;SDS011;6819;50.886;4.332;2023-08-24T14:19:09;6.10;;;3.17;;
13493;SDS011;6819;50.886;4.332;2023-08-24T14:21:36;4.88;;;2.45;;
13493;SDS011;6819;50.886;4.332;2023-08-24T14:24:02;6.18;;;2.50;;
13493;SDS011;6819;50.886;4.332;2023-08-24T14:26:28;11.40;;;3.22;;
13493;SDS011;6819;50.886;4.332;2023-08-24T14:28:55;4.75;;;2.60;;
13493;SDS011;6819;50.886;4.332;2023-08-24T14:31:22;5.45;;;2.47;;
13493;SDS011;6819;50.886;4.332;2023-08-24T14:33:48;7.70;;;3.20;;
13493;SDS011;6819;50.886;4.332;2023-08-24T14:36:18;7.05;;;2.67;;
13493;SDS011;6819;50.886;4.332;2023-08-24T14:38:45;8.75;;;2.35;;
13493;SDS011;6819;50.886;4.332;2023-08-24T14:41:11;7.53;;;3.00;;
13493;SDS011;6819;50.886;4.332;2023-08-24T14:43:38;5.28;;;2.40;;
13493;SDS011;6819;50.886;4.332;2023-08-24T14:46:04;10.75;;;3.15;;
13493;SDS011;6819;50.886;4.332;2023-08-24T14:48:31;6.55;;;3.22;;
13493;SDS011;6819;50.886;4.332;2023-08-24T14:50:57;7.32;;;2.85;;
13493;SDS011;6819;50.886;4.332;2023-08-24T14:53:24;5.32;;;2.72;;
13493;SDS011;6819;50.886;4.332;2023-08-24T14:55:50;6.22;;;2.47;;
13493;SDS011;6819;50.886;4.332;2023-08-24T14:58:16;8.25;;;3.00;;
13493;SDS011;6819;50.886;4.332;2023-08-24T15:00:42;7.75;;;2.53;;
13493;SDS011;6819;50.886;4.332;2023-08-24T15:03:11;5.07;;;2.55;;